Time;durP1;ratioP1;P1;durP2;ratioP2;P2;SDS_P1;SDS_P2;PMS_P1;PMS_P2;Temp;Humidity;BMP_temperature;BMP_pressure;BME280_temperature;BME280_humidity;BME280_pressure;Samples;Min_cycle;Max_cycle;Signal;HPM_P1;HPM_P2
2022/06/17 00:02:04;;;;;;;1.43;1.33;;;21.20;98.30;;;21.45;49.06;101960.03;4941488;28;98003;-71
2022/06/17 00:04:30;;;;;;;1.53;1.30;;;21.20;98.10;;;21.46;48.96;101967.13;4943968;28;98909;-71
2022/06/17 00:07:11;;;;;;;1.50;1.40;;;21.30;98.20;;;21.46;48.85;101961.75;4947285;28;97896;-71
2022/06/17 00:09:37;;;;;;;2.17;1.97;;;21.30;98.10;;;21.45;48.84;101960.03;4924650;28;98297;-71
2022/06/17 00:12:06;;;;;;;3.70;3.40;;;21.20;98.00;;;21.41;49.20;101965.66;4957869;28;97166;-72
2022/06/17 00:15:11;;;;;;;7.90;4.07;;;21.20;98.00;;;21.36;49.20;101969.50;4943007;28;97515;-71
2022/06/17 00:17:22;;;;;;;2.40;2.20;;;21.10;98.20;;;21.28;49.54;101968.25;4942024;28;97291;-71
2022/06/17 00:19:48;;;;;;;1.70;1.60;;;20.90;98.60;;;21.25;49.58;101963.91;4944035;28;97503;-71
2022/06/17 00:22:14;;;;;;;6.00;3.77;;;20.90;98.80;;;21.25;49.57;101957.69;4957205;28;107877;-71
2022/06/17 00:24:40;;;;;;;3.73;3.00;;;20.90;98.90;;;21.18;49.68;101965.22;4943508;28;98789;-72
2022/06/17 00:27:13;;;;;;;3.20;2.57;;;20.80;98.80;;;21.15;49.79;101961.84;4926256;28;98021;-71
2022/06/17 00:29:39;;;;;;;1.63;1.43;;;20.70;99.10;;;21.10;50.07;101960.28;4941488;28;97372;-71
2022/06/17 00:32:06;;;;;;;1.70;1.60;;;20.70;99.10;;;21.12;50.03;101962.00;4941819;28;99450;-71
2022/06/17 00:34:31;;;;;;;1.60;1.50;;;20.80;99.30;;;21.15;49.85;101956.50;4961899;28;97180;-71
2022/06/17 00:37:00;;;;;;;2.77;1.57;;;20.80;99.10;;;21.17;50.00;101949.22;4944468;28;96780;-71
2022/06/17 00:39:33;;;;;;;6.00;3.70;;;20.80;98.90;;;21.16;49.83;101951.03;4956880;28;97396;-71
2022/06/17 00:42:10;;;;;;;2.33;2.13;;;20.80;98.80;;;21.16;49.76;101951.03;4944212;28;97527;-72
2022/06/17 00:44:50;;;;;;;2.43;1.90;;;20.80;98.80;;;21.14;49.98;101950.25;4939683;28;100651;-71
2022/06/17 00:47:37;;;;;;;1.70;1.60;;;20.80;98.90;;;21.16;50.00;101947.47;4939320;28;98001;-71
2022/06/17 00:50:15;;;;;;;1.80;1.70;;;20.80;99.30;;;21.18;50.01;101945.56;4941033;28;97161;-72
2022/06/17 00:53:10;;;;;;;2.93;1.77;;;20.90;99.10;;;21.21;49.76;101943.56;4950330;28;99292;-71
2022/06/17 00:55:49;;;;;;;3.60;3.30;;;20.90;98.50;;;21.22;49.72;101941.72;4940310;28;100923;-72
2022/06/17 00:58:34;;;;;;;4.03;3.10;;;20.90;98.80;;;21.21;49.72;101946.25;4938388;28;99050;-71
2022/06/17 01:01:02;;;;;;;2.83;1.90;;;20.90;98.50;;;21.22;49.92;101952.47;4939549;28;99831;-73
2022/06/17 01:03:35;;;;;;;5.27;4.20;;;20.90;99.00;;;21.18;49.79;101951.78;4938813;28;97931;-73
2022/06/17 01:06:15;;;;;;;3.73;3.10;;;20.90;98.20;;;21.13;49.92;101953.03;4936826;28;99100;-74
2022/06/17 01:11:32;;;;;;;2.17;1.77;;;20.70;99.70;;;21.03;50.21;101945.53;4940903;28;99087;-72
2022/06/17 01:14:00;;;;;;;1.70;1.60;;;20.60;99.60;;;21.09;50.25;101941.59;4930092;28;97613;-73
2022/06/17 01:16:33;;;;;;;2.03;1.50;;;20.80;99.50;;;21.14;50.07;101944.03;4957621;28;100315;-73
2022/06/17 01:19:10;;;;;;;4.17;3.77;;;20.80;99.20;;;21.15;49.77;101951.13;4927932;28;100129;-72
2022/06/17 01:21:49;;;;;;;4.00;3.00;;;20.80;98.40;;;21.10;49.87;101948.69;4934545;28;102537;-73
2022/06/17 01:24:15;;;;;;;1.70;1.60;;;20.80;99.00;;;21.08;50.23;101940.75;4937457;28;99564;-72
2022/06/17 01:26:41;;;;;;;1.70;1.60;;;20.70;99.50;;;21.12;49.94;101943.22;4938870;28;98879;-73
2022/06/17 01:29:13;;;;;;;7.43;3.33;;;20.80;99.40;;;21.12;49.88;101944.13;4937678;28;98853;-73
2022/06/17 01:31:45;;;;;;;6.00;4.00;;;20.80;98.70;;;21.07;49.90;101941.69;4941195;28;98728;-73
2022/06/17 01:34:13;;;;;;;2.90;2.60;;;20.70;98.70;;;20.97;50.30;101951.22;4922867;28;97363;-73
2022/06/17 01:36:40;;;;;;;2.17;1.90;;;20.60;99.10;;;20.96;50.58;101959.38;4965756;28;96913;-73
2022/06/17 01:39:06;;;;;;;2.57;2.03;;;20.50;99.90;;;20.96;50.32;101960.22;4994246;28;102490;-72
2022/06/17 01:41:34;;;;;;;7.27;3.70;;;20.60;99.30;;;20.94;50.19;101964.81;4941618;28;97147;-73
2022/06/17 01:44:22;;;;;;;1.60;1.50;;;20.60;99.10;;;20.96;50.56;101979.00;4962084;28;97422;-73
2022/06/17 01:46:55;;;;;;;2.07;1.87;;;20.50;99.90;;;20.90;50.64;101982.06;4950863;28;100540;-72
2022/06/17 01:49:30;;;;;;;11.53;6.87;;;20.50;99.90;;;20.85;50.55;101961.84;4956200;28;97153;-72
2022/06/17 01:52:13;;;;;;;9.67;6.10;;;20.40;99.30;;;20.84;50.49;101969.03;4959289;28;98900;-73
2022/06/17 01:54:54;;;;;;;4.93;3.63;;;20.40;99.20;;;20.83;50.69;101975.34;4939877;28;97506;-73
2022/06/17 01:57:29;;;;;;;2.20;2.00;;;20.40;99.70;;;20.82;51.00;101976.25;4952111;28;97709;-72
2022/06/17 02:00:10;;;;;;;2.10;2.00;;;20.40;99.90;;;20.82;51.08;101976.25;4965526;28;97613;-73
2022/06/17 02:02:38;;;;;;;1.90;1.80;;;20.40;99.90;;;20.85;50.72;101976.13;4978610;28;99990;-72
2022/06/17 02:05:08;;;;;;;1.67;1.57;;;20.50;99.90;;;20.87;50.64;101974.19;4945199;28;97459;-73
2022/06/17 02:07:40;;;;;;;1.80;1.70;;;20.50;99.60;;;20.90;50.67;101968.66;4982765;28;97459;-73
2022/06/17 02:10:06;;;;;;;3.13;2.70;;;20.60;99.80;;;20.94;50.49;101970.19;4940671;28;98466;-73
2022/06/17 02:12:34;;;;;;;1.80;1.70;;;20.60;99.20;;;20.96;50.46;101968.28;4977618;28;97223;-73
2022/06/17 02:15:00;;;;;;;1.80;1.70;;;20.60;99.80;;;20.97;50.48;101970.00;4974567;28;116884;-72
2022/06/17 02:17:30;;;;;;;2.00;1.90;;;20.70;99.40;;;20.99;50.54;101968.13;4955760;28;101776;-72
2022/06/17 02:19:56;;;;;;;2.27;1.80;;;20.70;99.70;;;21.01;50.52;101971.56;4976838;28;97037;-73
2022/06/17 02:22:30;;;;;;;1.60;1.50;;;20.70;99.40;;;21.05;50.49;101975.78;4987593;28;96890;-73
2022/06/17 02:25:03;;;;;;;2.17;1.97;;;20.80;99.80;;;21.09;50.24;101963.91;4960673;28;98366;-72
2022/06/17 02:27:32;;;;;;;2.03;1.83;;;20.80;99.20;;;21.11;50.21;101955.78;4976811;28;101860;-73
2022/06/17 02:29:59;;;;;;;1.70;1.60;;;20.80;99.50;;;21.08;50.42;101969.38;4948028;28;99510;-73
2022/06/17 02:32:25;;;;;;;1.73;1.63;;;20.80;99.70;;;21.07;50.38;101965.84;4981441;28;97084;-72
2022/06/17 02:35:10;;;;;;;1.90;1.80;;;20.80;99.50;;;21.08;50.40;101972.94;4981840;28;97148;-73
2022/06/17 02:37:36;;;;;;;1.77;1.67;;;20.80;99.70;;;21.08;50.51;101972.94;4941190;28;102731;-73
2022/06/17 02:40:05;;;;;;;1.90;1.80;;;20.80;99.70;;;21.08;50.39;101972.94;4941234;28;98306;-73
2022/06/17 02:42:36;;;;;;;1.80;1.70;;;20.80;99.50;;;21.10;50.31;101973.69;4958076;28;101391;-72
2022/06/17 02:45:18;;;;;;;1.73;1.63;;;20.80;99.50;;;21.12;50.16;101975.41;4955014;28;96942;-73
2022/06/17 02:47:45;;;;;;;2.17;1.83;;;20.80;99.60;;;21.10;50.31;101970.16;4955684;28;97865;-72
2022/06/17 02:50:18;;;;;;;5.03;3.73;;;20.80;99.50;;;21.09;50.24;101984.53;4978778;28;97311;-72
2022/06/17 02:52:44;;;;;;;1.80;1.70;;;20.80;98.80;;;21.07;50.29;101984.63;4947763;28;97406;-73
2022/06/17 02:55:34;;;;;;;1.93;1.83;;;20.70;99.60;;;21.09;50.36;101982.69;4962503;28;97470;-73
2022/06/17 02:58:16;;;;;;;5.73;3.13;;;20.80;99.40;;;20.98;49.95;101993.22;4958997;28;96915;-72
2022/06/17 03:00:43;;;;;;;2.10;2.00;;;20.60;98.60;;;20.87;50.76;101995.66;4954263;28;101175;-73
2022/06/17 03:03:15;;;;;;;2.10;1.90;;;20.40;99.90;;;20.86;50.87;102001.97;4939546;28;96912;-72
2022/06/17 03:05:44;;;;;;;2.17;2.00;;;20.40;99.90;;;20.90;50.74;102003.53;4950102;28;99246;-72
2022/06/17 03:08:29;;;;;;;4.20;3.37;;;20.50;99.90;;;20.89;50.53;101999.09;4947482;28;97565;-73
2022/06/17 03:10:59;;;;;;;1.83;1.73;;;20.50;99.40;;;20.88;50.68;102002.75;4958894;28;98317;-72
2022/06/17 03:13:51;;;;;;;2.17;1.97;;;20.50;99.90;;;20.89;50.70;102008.97;4956092;28;97094;-72
2022/06/17 03:16:19;;;;;;;1.77;1.67;;;20.50;99.80;;;20.86;50.99;102007.34;4968719;28;97160;-72
2022/06/17 03:18:47;;;;;;;2.10;1.90;;;20.50;99.90;;;20.86;50.91;102004.66;4977220;28;97718;-72
2022/06/17 03:21:20;;;;;;;1.90;1.80;;;20.50;99.90;;;20.93;50.67;102002.47;4966223;28;98110;-73
2022/06/17 03:24:02;;;;;;;1.93;1.83;;;20.60;99.90;;;20.99;50.50;101999.44;4942463;28;97056;-72
2022/06/17 03:26:37;;;;;;;2.03;1.90;;;20.70;99.90;;;21.06;50.29;101990.94;4954318;28;97157;-72
2022/06/17 03:29:06;;;;;;;1.80;1.70;;;20.80;99.70;;;21.14;49.93;101995.00;4964235;28;96779;-73
2022/06/17 03:31:52;;;;;;;2.07;1.93;;;20.90;99.40;;;21.22;49.97;102003.44;4950564;28;97696;-72
2022/06/17 03:34:27;;;;;;;1.87;1.77;;;21.10;99.30;;;21.26;49.87;101996.97;4972147;28;97190;-71
2022/06/17 03:37:11;;;;;;;2.00;1.90;;;21.10;99.10;;;21.33;49.68;102006.41;4957689;28;96720;-71
2022/06/17 03:39:46;;;;;;;1.90;1.80;;;21.20;98.90;;;21.34;49.66;102008.13;4969235;28;100387;-71
2022/06/17 03:42:26;;;;;;;2.30;2.10;;;21.20;98.50;;;21.34;49.66;102010.81;4958713;28;97471;-72
2022/06/17 03:45:16;;;;;;;2.03;1.80;;;21.20;98.90;;;21.36;49.57;102015.13;4978541;28;99506;-71
2022/06/17 03:48:03;;;;;;;2.17;1.97;;;21.20;99.00;;;21.38;49.39;102015.91;4946236;28;97160;-71
2022/06/17 03:50:34;;;;;;;2.77;1.90;;;21.30;98.90;;;21.42;49.41;102019.28;4954217;28;100507;-71
2022/06/17 03:53:17;;;;;;;2.00;1.90;;;21.30;98.90;;;21.47;49.27;102019.88;4996756;28;97150;-71
2022/06/17 03:55:43;;;;;;;2.00;1.90;;;21.40;99.20;;;21.50;49.31;102017.00;4962549;28;98391;-72
2022/06/17 03:58:16;;;;;;;2.60;2.30;;;21.40;98.70;;;21.53;49.22;102011.44;4961556;28;104738;-72
2022/06/17 04:01:05;;;;;;;2.50;2.27;;;21.50;98.60;;;21.55;49.04;102012.19;4960368;28;97463;-71
2022/06/17 04:03:34;;;;;;;2.80;2.10;;;21.50;98.50;;;21.56;49.23;102016.63;4973936;28;102283;-71
2022/06/17 04:06:10;;;;;;;3.23;2.07;;;21.50;98.50;;;21.60;48.93;102026.22;4977012;28;97029;-71
2022/06/17 04:09:01;;;;;;;1.63;1.53;;;21.60;98.40;;;21.61;49.04;102017.22;4971944;28;98175;-71
2022/06/17 04:11:39;;;;;;;2.40;2.20;;;21.60;98.40;;;21.65;49.03;102021.44;4974269;28;103045;-71
2022/06/17 04:14:23;;;;;;;2.00;1.90;;;21.60;98.40;;;21.64;48.84;102025.06;4949513;28;97290;-72
2022/06/17 04:17:19;;;;;;;2.53;1.87;;;21.60;98.20;;;21.63;49.06;102017.13;4958245;28;97139;-72
2022/06/17 04:20:03;;;;;;;2.30;2.10;;;21.60;98.40;;;21.64;48.95;102014.34;4953580;28;97432;-71
2022/06/17 04:22:33;;;;;;;4.33;3.50;;;21.60;98.20;;;21.62;48.44;102026.13;4939689;28;101056;-71
2022/06/17 04:25:05;;;;;;;4.87;2.60;;;21.50;97.20;;;21.60;49.12;102023.53;4977760;28;97112;-72
2022/06/17 04:27:56;;;;;;;2.30;2.10;;;21.50;98.30;;;21.57;49.09;102023.72;4944142;28;97037;-71
2022/06/17 04:30:21;;;;;;;2.53;2.07;;;21.50;98.30;;;21.56;49.15;102040.81;4968574;28;101809;-71
2022/06/17 04:32:52;;;;;;;3.37;2.47;;;21.40;98.50;;;21.55;49.06;102052.47;4958451;28;97367;-71
2022/06/17 04:35:18;;;;;;;2.17;1.97;;;21.40;98.60;;;21.55;49.06;102039.03;4964461;28;97005;-71
2022/06/17 04:37:46;;;;;;;2.50;2.30;;;21.40;98.50;;;21.56;49.16;102038.13;4972840;28;97104;-72
2022/06/17 04:40:39;;;;;;;2.57;2.10;;;21.50;98.60;;;21.60;49.02;102038.78;4941900;28;97698;-72
2022/06/17 04:43:35;;;;;;;2.80;1.90;;;21.50;98.50;;;21.61;48.90;102041.38;4974309;28;98046;-72
2022/06/17 04:46:25;;;;;;;2.17;1.97;;;21.50;98.40;;;21.61;49.14;102036.00;4985531;28;97294;-71
2022/06/17 04:48:57;;;;;;;2.80;2.07;;;21.50;98.40;;;21.61;49.17;102035.16;4949541;28;100586;-71
2022/06/17 04:51:28;;;;;;;3.37;2.33;;;21.50;98.40;;;21.63;48.85;102050.19;4947448;28;97644;-71
2022/06/17 04:53:54;;;;;;;2.83;2.20;;;21.50;98.30;;;21.60;48.88;102042.34;4971043;28;97622;-73
2022/06/17 04:56:42;;;;;;;2.57;2.30;;;21.60;98.30;;;21.62;49.07;102031.50;4966392;28;96800;-71
2022/06/17 04:59:44;;;;;;;2.40;2.10;;;21.60;98.20;;;21.64;48.86;102038.50;5001133;28;97203;-73
2022/06/17 05:02:22;;;;;;;2.30;2.10;;;21.60;98.20;;;21.65;48.86;102026.81;4967137;28;97230;-72
2022/06/17 05:04:52;;;;;;;2.50;1.90;;;21.60;98.20;;;21.65;49.04;102029.47;4991771;28;100526;-71
2022/06/17 05:07:19;;;;;;;3.03;2.27;;;21.60;98.20;;;21.67;48.82;102029.38;4976338;28;97268;-72
2022/06/17 05:09:58;;;;;;;3.47;2.70;;;21.60;98.10;;;21.70;48.69;102034.59;4966656;28;97257;-71
2022/06/17 05:12:39;;;;;;;2.67;2.10;;;21.70;98.10;;;21.71;48.64;102035.47;4986896;28;97461;-71
2022/06/17 05:15:16;;;;;;;3.03;2.20;;;21.70;98.10;;;21.73;48.69;102045.16;4963280;28;101934;-72
2022/06/17 05:17:42;;;;;;;2.53;2.33;;;21.70;98.10;;;21.72;48.68;102038.06;4960038;28;97177;-71
2022/06/17 05:20:14;;;;;;;3.00;2.17;;;21.70;98.10;;;21.75;48.62;102035.16;4957847;28;97220;-71
2022/06/17 05:22:49;;;;;;;2.50;2.30;;;21.70;98.00;;;21.79;48.48;102041.22;4978543;28;97050;-71
2022/06/17 05:25:22;;;;;;;2.70;2.00;;;21.70;98.00;;;21.80;48.50;102040.25;4969683;28;97119;-71
2022/06/17 05:27:49;;;;;;;2.50;2.30;;;21.70;98.00;;;21.79;48.40;102035.84;4961269;28;98254;-71
2022/06/17 05:30:15;;;;;;;2.13;2.03;;;21.70;98.00;;;21.79;48.51;102038.53;4957936;28;101096;-71
2022/06/17 05:32:46;;;;;;;3.47;2.03;;;21.80;98.00;;;21.82;48.50;102027.59;4980459;28;97266;-72
2022/06/17 05:35:13;;;;;;;3.23;2.30;;;21.80;98.00;;;21.82;48.59;102032.97;4956351;28;98177;-71
2022/06/17 05:37:39;;;;;;;2.77;2.47;;;21.80;98.00;;;21.81;48.00;102036.59;4978691;28;97071;-72
2022/06/17 05:40:08;;;;;;;2.83;2.43;;;21.80;97.40;;;21.79;48.53;102033.16;4963555;28;97484;-72
2022/06/17 05:42:38;;;;;;;3.00;2.20;;;21.70;98.00;;;21.77;48.56;102024.34;4959669;28;96713;-72
2022/06/17 05:45:05;;;;;;;3.27;2.27;;;21.70;98.00;;;21.77;48.81;102027.00;4975898;28;97090;-72
2022/06/17 05:47:31;;;;;;;2.47;2.00;;;21.70;97.90;;;21.80;48.58;102024.13;4966038;28;98941;-71
2022/06/17 05:49:57;;;;;;;2.97;2.30;;;21.80;98.00;;;21.80;48.50;102018.75;4974246;28;99404;-71
2022/06/17 05:52:23;;;;;;;4.43;2.17;;;21.80;97.80;;;21.81;48.41;102020.50;4955498;28;99164;-71
2022/06/17 05:54:49;;;;;;;9.07;3.30;;;21.80;97.80;;;21.82;47.72;102022.22;4983265;28;98544;-71
2022/06/17 05:57:16;;;;;;;3.30;2.87;;;21.80;97.30;;;21.75;45.92;102016.38;4963597;28;96958;-72
2022/06/17 05:59:41;;;;;;;2.50;2.17;;;21.70;96.30;;;21.74;48.57;102016.47;4958613;28;97428;-72
2022/06/17 06:02:11;;;;;;;2.47;2.27;;;21.60;98.10;;;21.71;48.25;102013.97;4955978;28;96973;-72
2022/06/17 06:04:37;;;;;;;3.47;2.30;;;21.70;98.30;;;21.69;48.79;102006.84;4959653;28;97708;-71
2022/06/17 06:07:03;;;;;;;3.70;2.20;;;21.70;98.10;;;21.72;48.40;102015.72;4974558;28;97246;-72
2022/06/17 06:09:29;;;;;;;2.30;2.10;;;21.60;97.70;;;21.72;48.51;102015.72;4944790;28;97339;-71
2022/06/17 06:11:55;;;;;;;2.43;2.00;;;21.60;97.70;;;21.67;48.98;102024.88;4993384;28;97752;-71
2022/06/17 06:14:21;;;;;;;2.50;2.30;;;21.70;98.10;;;21.69;48.71;102022.09;4936241;28;102556;-71
2022/06/17 06:16:46;;;;;;;2.87;2.40;;;21.70;97.80;;;21.65;48.75;102015.19;4969238;28;96783;-72
2022/06/17 06:19:12;;;;;;;2.47;2.27;;;21.70;98.10;;;21.66;48.94;102008.88;4959733;28;97118;-71
2022/06/17 06:21:38;;;;;;;2.53;2.33;;;21.70;98.00;;;21.71;48.79;102017.53;4982068;28;97637;-72
2022/06/17 06:24:04;;;;;;;2.43;2.03;;;21.70;97.90;;;21.75;48.73;102010.13;4953967;28;97143;-71
2022/06/17 06:26:30;;;;;;;2.10;1.97;;;21.70;97.80;;;21.69;48.68;102009.53;4949270;28;98125;-71
2022/06/17 06:28:56;;;;;;;3.00;2.00;;;21.70;97.90;;;21.73;48.57;102017.44;4971003;28;97494;-71
2022/06/17 06:31:28;;;;;;;2.40;2.20;;;21.70;97.90;;;21.75;48.69;102007.44;4974021;28;98796;-72
2022/06/17 06:33:55;;;;;;;2.53;2.33;;;21.70;97.90;;;21.75;48.43;101999.41;4951583;28;98114;-71
2022/06/17 06:36:21;;;;;;;2.33;2.13;;;21.70;97.90;;;21.76;48.60;102001.97;4946677;28;97666;-71
2022/06/17 06:38:48;;;;;;;2.37;2.17;;;21.70;97.90;;;21.66;48.82;101996.31;4973157;28;97312;-71
2022/06/17 06:41:14;;;;;;;2.43;2.23;;;21.70;97.90;;;21.65;48.94;101988.34;4969544;28;97264;-71
2022/06/17 06:43:41;;;;;;;2.30;2.10;;;21.70;97.90;;;21.65;48.86;101994.56;4974623;28;97608;-71
2022/06/17 06:46:11;;;;;;;2.50;2.30;;;21.70;97.90;;;21.66;48.70;102004.34;4954438;28;97163;-71
2022/06/17 06:48:39;;;;;;;2.80;2.50;;;21.70;97.90;;;21.69;48.82;102014.91;4960178;28;99266;-71
2022/06/17 06:51:05;;;;;;;2.30;2.10;;;21.70;97.80;;;21.74;48.82;102009.28;4951140;28;97163;-72
2022/06/17 06:53:31;;;;;;;2.10;2.00;;;21.70;97.80;;;21.71;48.80;102013.97;4943639;28;98416;-71
2022/06/17 06:55:57;;;;;;;3.00;2.00;;;21.80;97.90;;;21.71;48.72;102004.09;4960182;28;99111;-71
2022/06/17 06:58:25;;;;;;;2.27;2.07;;;21.70;97.80;;;21.67;48.87;101999.84;4940621;28;97124;-71
2022/06/17 07:00:54;;;;;;;2.60;1.93;;;21.70;97.90;;;21.65;48.86;101999.09;4943075;28;97271;-72
2022/06/17 07:03:21;;;;;;;2.90;2.50;;;21.70;97.90;;;21.63;48.94;102001.88;4930043;28;99064;-71
2022/06/17 07:05:55;;;;;;;2.17;1.93;;;21.70;97.80;;;21.64;48.86;101998.22;4944429;28;98269;-72
2022/06/17 07:08:24;;;;;;;2.20;2.10;;;21.70;97.90;;;21.69;48.81;102006.84;4922219;28;97196;-71
2022/06/17 07:10:53;;;;;;;2.73;2.47;;;21.70;97.80;;;21.77;48.73;102002.84;4941560;28;97346;-71
2022/06/17 07:13:21;;;;;;;2.10;1.90;;;21.80;97.60;;;21.74;48.68;101989.63;4952636;28;97269;-71
2022/06/17 07:15:47;;;;;;;2.60;2.27;;;21.80;97.80;;;21.75;48.23;101984.16;4957352;28;101180;-71
2022/06/17 07:18:23;;;;;;;2.30;2.10;;;21.80;97.10;;;21.76;48.62;101990.38;4937340;28;96947;-72
2022/06/17 07:20:55;;;;;;;2.00;1.80;;;21.80;97.70;;;21.75;48.79;101988.66;4942474;28;97806;-71
2022/06/17 07:23:37;;;;;;;2.23;1.80;;;21.80;97.80;;;21.74;48.43;102000.34;4937885;28;98028;-71
2022/06/17 07:26:16;;;;;;;2.40;2.17;;;21.80;97.70;;;21.65;48.91;101999.09;4924542;28;100252;-73
2022/06/17 07:28:43;;;;;;;4.13;2.53;;;21.70;97.80;;;21.67;47.00;102000.72;4943782;28;98488;-71
2022/06/17 07:31:09;;;;;;;2.10;1.90;;;21.70;96.80;;;21.75;48.52;102007.44;4937320;28;99695;-71
2022/06/17 07:33:35;;;;;;;2.20;2.00;;;21.80;97.60;;;21.71;48.57;101998.72;4958871;28;99228;-71
2022/06/17 07:36:04;;;;;;;3.13;2.03;;;21.80;97.70;;;21.78;47.93;102007.25;4957994;28;97500;-72
2022/06/17 07:41:24;;;;;;;4.10;2.10;;;21.80;97.70;;;21.77;47.77;102002.84;4941034;28;97235;-72
2022/06/17 07:43:52;;;;;;;2.27;1.93;;;21.80;96.90;;;21.69;48.55;101988.06;4941942;28;97100;-71
2022/06/17 07:46:18;;;;;;;2.20;2.00;;;21.80;97.60;;;21.63;48.57;102001.88;4921325;28;99119;-71
2022/06/17 07:48:45;;;;;;;2.40;2.20;;;21.70;97.60;;;21.68;48.40;102005.13;4941272;28;96948;-71
2022/06/17 07:51:11;;;;;;;4.13;2.33;;;21.80;97.30;;;21.72;47.66;102003.13;4954057;28;97865;-71
2022/06/17 07:53:41;;;;;;;3.70;2.00;;;21.80;97.20;;;21.82;46.73;101998.03;4945511;28;98809;-71
2022/06/17 07:56:10;;;;;;;2.67;1.90;;;21.80;95.70;;;21.82;47.70;102003.41;4938561;28;98403;-72
2022/06/17 07:58:36;;;;;;;3.10;2.27;;;21.90;97.00;;;21.85;47.93;101996.06;4942044;28;98156;-71
2022/06/17 08:01:02;;;;;;;5.97;2.47;;;21.90;97.20;;;21.89;46.38;101996.72;4956845;28;98084;-75
2022/06/17 08:03:28;;;;;;;3.80;1.87;;;21.90;96.20;;;21.87;47.71;102004.88;4954091;28;100836;-71
2022/06/17 08:05:56;;;;;;;4.07;2.33;;;21.90;97.00;;;21.91;47.48;102005.53;4940944;28;97452;-71
2022/06/17 08:08:24;;;;;;;2.10;1.90;;;21.90;96.70;;;21.85;48.04;102017.53;4937003;28;97466;-71
2022/06/17 08:10:53;;;;;;;4.77;2.10;;;21.90;97.10;;;21.97;46.55;102016.75;4941275;28;97281;-71
2022/06/17 08:13:20;;;;;;;2.10;1.90;;;22.00;95.80;;;21.97;46.46;102021.28;4970139;28;99306;-71
2022/06/17 08:15:47;;;;;;;5.23;2.27;;;22.00;96.20;;;22.01;46.36;102017.44;4924774;28;98327;-71
2022/06/17 08:18:14;;;;;;;1.90;1.73;;;22.00;95.60;;;21.98;47.55;102018.47;4937581;28;97058;-72
2022/06/17 08:20:41;;;;;;;2.10;1.73;;;22.10;96.70;;;21.92;48.00;102015.34;4941069;28;97103;-71
2022/06/17 08:23:08;;;;;;;4.23;2.20;;;22.00;97.10;;;21.98;46.54;102001.50;4955761;28;97408;-72
2022/06/17 08:25:35;;;;;;;4.70;2.20;;;22.00;96.00;;;21.99;46.18;101997.88;4941086;28;97416;-71
2022/06/17 08:28:06;;;;;;;5.43;2.07;;;22.00;96.10;;;22.05;45.89;101996.63;4940987;28;97377;-71
2022/06/17 08:30:42;;;;;;;2.43;1.83;;;22.10;95.80;;;21.95;47.82;101993.63;4928059;28;98802;-72
2022/06/17 08:33:09;;;;;;;2.67;2.00;;;22.00;96.90;;;22.00;46.48;101988.88;4955368;28;98963;-72
2022/06/17 08:35:42;;;;;;;2.00;1.77;;;22.00;96.10;;;22.03;47.52;101994.03;4942307;28;98153;-71
2022/06/17 08:38:19;;;;;;;1.70;1.60;;;22.10;96.90;;;21.96;47.91;101985.47;4957186;28;96922;-71
2022/06/17 08:40:54;;;;;;;2.00;1.90;;;22.00;97.00;;;21.80;48.40;101981.16;4942532;28;97131;-71
2022/06/17 08:43:59;;;;;;;2.53;1.70;;;21.90;97.10;;;21.81;48.58;101981.06;4956632;28;97449;-71
2022/06/17 08:46:53;;;;;;;1.60;1.50;;;21.90;97.30;;;21.69;48.38;101974.63;4938508;28;97417;-71
2022/06/17 08:50:11;;;;;;;1.97;1.83;;;21.90;97.30;;;21.80;48.50;101981.16;4956314;28;98419;-71
2022/06/17 08:53:04;;;;;;;3.40;1.70;;;21.90;97.40;;;21.91;47.37;101976.00;4920109;28;98079;-72
2022/06/17 08:55:50;;;;;;;2.90;2.03;;;21.90;97.30;;;22.04;46.86;101979.66;4921414;28;101180;-72
2022/06/17 08:58:57;;;;;;;3.17;2.20;;;22.10;95.40;;;22.18;44.55;101978.81;4918959;28;98070;-71
2022/06/17 09:01:43;;;;;;;2.87;1.90;;;22.20;95.40;;;22.06;47.09;101966.16;4923911;28;96875;-71
2022/06/17 09:04:33;;;;;;;1.97;1.80;;;22.20;96.40;;;21.92;47.84;101966.97;4957833;28;97465;-73
2022/06/17 09:07:02;;;;;;;1.43;1.33;;;22.10;96.80;;;21.86;47.88;101959.31;4930985;28;100002;-73
2022/06/17 09:10:21;;;;;;;2.93;2.13;;;22.00;96.80;;;22.02;47.29;101960.06;4940208;28;102492;-73
2022/06/17 09:13:12;;;;;;;2.47;1.60;;;22.10;96.70;;;22.02;47.50;101960.06;4941613;28;97165;-73
2022/06/17 09:15:43;;;;;;;1.70;1.60;;;22.10;96.80;;;21.97;48.16;101956.78;4956903;28;98325;-73
2022/06/17 09:18:36;;;;;;;1.70;1.60;;;22.10;96.90;;;22.04;47.60;101955.47;4957834;28;97566;-73
2022/06/17 09:21:15;;;;;;;1.80;1.70;;;22.10;96.80;;;21.96;47.94;101955.06;4961850;28;97109;-75
2022/06/17 09:23:42;;;;;;;3.67;1.83;;;22.10;96.90;;;21.95;46.77;101953.34;4943865;28;98476;-73
2022/06/17 09:26:23;;;;;;;2.03;1.83;;;22.00;96.50;;;21.97;47.98;101954.09;4956377;28;97823;-73
2022/06/17 09:29:10;;;;;;;1.87;1.77;;;22.10;96.90;;;21.91;47.92;101951.81;4943063;28;98345;-73
2022/06/17 09:31:46;;;;;;;2.17;1.90;;;22.00;96.40;;;21.89;48.27;101953.75;4956136;28;101366;-73
2022/06/17 09:34:23;;;;;;;1.90;1.80;;;22.00;97.20;;;21.97;48.14;101948.72;4923759;28;96864;-73
2022/06/17 09:37:08;;;;;;;4.23;2.23;;;22.00;97.00;;;22.00;46.79;101955.75;4943507;28;97456;-73
2022/06/17 09:40:09;;;;;;;1.90;1.70;;;22.00;96.00;;;22.00;47.72;101943.19;4939098;28;102237;-73
2022/06/17 09:42:46;;;;;;;2.20;1.90;;;22.10;96.80;;;21.99;47.72;101944.16;4942526;28;101800;-77
2022/06/17 09:45:32;;;;;;;3.13;1.93;;;22.10;96.70;;;21.77;48.55;101941.94;4939973;28;97836;-70
2022/06/17 09:48:17;;;;;;;2.73;1.57;;;21.90;97.00;;;21.87;48.07;101939.56;4946192;28;101639;-70
2022/06/17 09:51:01;;;;;;;3.43;1.80;;;22.00;97.10;;;21.83;48.03;101941.53;4957190;28;100589;-70
2022/06/17 09:53:46;;;;;;;4.77;1.83;;;21.90;96.90;;;22.01;45.22;101931.47;4928942;28;104184;-70
2022/06/17 09:56:24;;;;;;;2.37;1.60;;;22.00;95.00;;;21.88;47.76;101935.91;4954874;28;99388;-69
2022/06/17 09:58:54;;;;;;;3.83;1.60;;;22.00;96.60;;;21.92;47.56;101927.53;4959541;28;97764;-70
2022/06/17 10:01:20;;;;;;;2.30;1.83;;;22.00;96.40;;;22.18;45.84;101928.59;4955850;28;98631;-70
2022/06/17 10:03:45;;;;;;;2.10;1.83;;;22.30;95.00;;;22.27;46.36;101933.38;4958059;28;97487;-70
2022/06/17 10:06:32;;;;;;;1.77;1.47;;;22.40;95.50;;;22.24;46.50;101933.56;4956421;28;98769;-70
2022/06/17 10:09:17;;;;;;;1.93;1.60;;;22.40;95.70;;;22.15;47.28;101928.81;4959453;28;99418;-70
2022/06/17 10:12:07;;;;;;;1.80;1.50;;;22.30;96.30;;;22.02;47.79;101919.78;4939132;28;100472;-71
2022/06/17 10:15:30;;;;;;;1.83;1.43;;;22.20;96.70;;;22.04;47.89;101915.16;4940418;28;102583;-70
2022/06/17 10:18:33;;;;;;;2.90;1.80;;;22.10;96.70;;;22.07;47.00;101923.06;4956715;28;98112;-70
2022/06/17 10:21:14;;;;;;;2.73;1.70;;;22.10;96.60;;;22.11;47.46;101910.28;4956361;28;98982;-70
2022/06/17 10:24:10;;;;;;;4.07;1.60;;;22.20;96.70;;;22.03;47.78;101908.06;4955576;28;100527;-70
2022/06/17 10:27:10;;;;;;;1.93;1.70;;;22.20;96.70;;;21.80;48.44;101897.91;4923243;28;101602;-70
2022/06/17 10:29:48;;;;;;;3.13;1.70;;;22.00;96.90;;;21.84;48.48;101910.19;4924416;28;99475;-70
2022/06/17 10:32:14;;;;;;;2.03;1.50;;;21.90;96.90;;;21.82;48.39;101895.97;4937938;28;97719;-70
2022/06/17 10:34:49;;;;;;;1.37;1.27;;;22.00;97.00;;;21.90;48.13;101902.59;4941146;28;98753;-70
2022/06/17 10:37:16;;;;;;;1.53;1.40;;;22.00;97.00;;;21.71;48.47;101901.19;4923911;28;99169;-70
2022/06/17 10:39:43;;;;;;;2.87;1.67;;;21.90;97.10;;;21.85;48.11;101899.38;4958580;28;97024;-70
2022/06/17 10:42:16;;;;;;;2.83;1.80;;;22.00;97.00;;;21.87;47.95;101901.94;4955727;28;97646;-70
2022/06/17 10:44:47;;;;;;;1.77;1.47;;;22.00;97.00;;;22.03;47.38;101896.47;4939916;28;97509;-70
2022/06/17 10:47:32;;;;;;;6.43;2.17;;;22.10;96.70;;;22.25;46.95;101913.78;4955753;28;99193;-70